sensor_id;sensor_type;location;lat;lon;timestamp;pressure;altitude;pressure_sealevel;temperature
76394;BMP180;65216;51.090;-115.352;2023-04-25T00:01:59;86579.80;;;22.16
76394;BMP180;65216;51.090;-115.352;2023-04-25T00:04:29;86569.20;;;22.18
76394;BMP180;65216;51.090;-115.352;2023-04-25T00:07:00;86589.20;;;22.20
76394;BMP180;65216;51.090;-115.352;2023-04-25T00:09:31;86584.80;;;22.16
76394;BMP180;65216;51.090;-115.352;2023-04-25T00:11:59;86572.80;;;22.20
76394;BMP180;65216;51.090;-115.352;2023-04-25T00:14:30;86567.40;;;22.18
76394;BMP180;65216;51.090;-115.352;2023-04-25T00:17:01;86583.00;;;22.20
76394;BMP180;65216;51.090;-115.352;2023-04-25T00:19:31;86597.60;;;22.20
76394;BMP180;65216;51.090;-115.352;2023-04-25T00:22:01;86592.20;;;22.18
76394;BMP180;65216;51.090;-115.352;2023-04-25T00:24:28;86588.00;;;22.14
76394;BMP180;65216;51.090;-115.352;2023-04-25T00:27:01;86586.80;;;22.12
76394;BMP180;65216;51.090;-115.352;2023-04-25T00:29:28;86602.80;;;22.10
76394;BMP180;65216;51.090;-115.352;2023-04-25T00:31:56;86609.60;;;22.16
76394;BMP180;65216;51.090;-115.352;2023-04-25T00:34:26;86597.60;;;22.10
76394;BMP180;65216;51.090;-115.352;2023-04-25T00:36:56;86617.20;;;22.10
76394;BMP180;65216;51.090;-115.352;2023-04-25T00:39:26;86606.80;;;22.10
76394;BMP180;65216;51.090;-115.352;2023-04-25T00:41:56;86602.40;;;22.10
76394;BMP180;65216;51.090;-115.352;2023-04-25T00:44:26;86601.20;;;22.10
76394;BMP180;65216;51.090;-115.352;2023-04-25T00:46:56;86605.20;;;22.10
76394;BMP180;65216;51.090;-115.352;2023-04-25T00:49:26;86611.40;;;22.10
76394;BMP180;65216;51.090;-115.352;2023-04-25T00:51:53;86601.00;;;22.10
76394;BMP180;65216;51.090;-115.352;2023-04-25T00:54:21;86611.40;;;22.10
76394;BMP180;65216;51.090;-115.352;2023-04-25T00:56:48;86607.60;;;22.10
76394;BMP180;65216;51.090;-115.352;2023-04-25T00:59:16;86597.00;;;22.10
76394;BMP180;65216;51.090;-115.352;2023-04-25T01:01:44;86598.60;;;22.10
76394;BMP180;65216;51.090;-115.352;2023-04-25T01:04:13;86605.20;;;22.10
76394;BMP180;65216;51.090;-115.352;2023-04-25T01:06:41;86606.20;;;22.10
76394;BMP180;65216;51.090;-115.352;2023-04-25T01:09:08;86607.80;;;22.10
76394;BMP180;65216;51.090;-115.352;2023-04-25T01:11:36;86634.00;;;22.10
76394;BMP180;65216;51.090;-115.352;2023-04-25T01:14:06;86619.40;;;22.10
76394;BMP180;65216;51.090;-115.352;2023-04-25T01:16:33;86624.40;;;22.10
76394;BMP180;65216;51.090;-115.352;2023-04-25T01:19:01;86623.60;;;22.08
76394;BMP180;65216;51.090;-115.352;2023-04-25T01:21:31;86620.60;;;22.06
76394;BMP180;65216;51.090;-115.352;2023-04-25T01:24:02;86630.00;;;22.00
76394;BMP180;65216;51.090;-115.352;2023-04-25T01:26:32;86612.20;;;22.00
76394;BMP180;65216;51.090;-115.352;2023-04-25T01:29:04;86619.00;;;22.00
76394;BMP180;65216;51.090;-115.352;2023-04-25T01:31:33;86606.20;;;22.00
76394;BMP180;65216;51.090;-115.352;2023-04-25T01:34:04;86611.60;;;22.00
76394;BMP180;65216;51.090;-115.352;2023-04-25T01:36:31;86625.60;;;22.00
76394;BMP180;65216;51.090;-115.352;2023-04-25T01:39:03;86618.80;;;22.00
76394;BMP180;65216;51.090;-115.352;2023-04-25T01:41:30;86620.20;;;22.00
76394;BMP180;65216;51.090;-115.352;2023-04-25T01:43:58;86609.20;;;22.00
76394;BMP180;65216;51.090;-115.352;2023-04-25T01:46:25;86636.00;;;22.00
76394;BMP180;65216;51.090;-115.352;2023-04-25T01:49:15;86632.00;;;22.00
76394;BMP180;65216;51.090;-115.352;2023-04-25T01:51:45;86616.00;;;22.00
76394;BMP180;65216;51.090;-115.352;2023-04-25T01:54:13;86617.00;;;22.00
76394;BMP180;65216;51.090;-115.352;2023-04-25T01:56:40;86614.80;;;22.00
76394;BMP180;65216;51.090;-115.352;2023-04-25T01:59:11;86626.40;;;22.00
76394;BMP180;65216;51.090;-115.352;2023-04-25T02:01:38;86630.80;;;21.94
76394;BMP180;65216;51.090;-115.352;2023-04-25T02:04:08;86627.40;;;21.90
76394;BMP180;65216;51.090;-115.352;2023-04-25T02:06:35;86646.20;;;21.90
76394;BMP180;65216;51.090;-115.352;2023-04-25T02:09:05;86630.40;;;21.90
76394;BMP180;65216;51.090;-115.352;2023-04-25T02:11:32;86631.00;;;21.90
76394;BMP180;65216;51.090;-115.352;2023-04-25T02:13:59;86624.00;;;21.90
76394;BMP180;65216;51.090;-115.352;2023-04-25T02:16:26;86636.00;;;21.90
76394;BMP180;65216;51.090;-115.352;2023-04-25T02:18:54;86638.20;;;21.90
76394;BMP180;65216;51.090;-115.352;2023-04-25T02:21:21;86646.00;;;21.90
76394;BMP180;65216;51.090;-115.352;2023-04-25T02:23:49;86648.60;;;21.90
76394;BMP180;65216;51.090;-115.352;2023-04-25T02:26:24;86637.40;;;21.90
76394;BMP180;65216;51.090;-115.352;2023-04-25T02:28:54;86649.20;;;21.90
76394;BMP180;65216;51.090;-115.352;2023-04-25T02:31:21;86652.00;;;21.84
76394;BMP180;65216;51.090;-115.352;2023-04-25T02:33:49;86655.00;;;21.80
76394;BMP180;65216;51.090;-115.352;2023-04-25T02:36:16;86644.40;;;21.80
76394;BMP180;65216;51.090;-115.352;2023-04-25T02:38:44;86661.60;;;21.80
76394;BMP180;65216;51.090;-115.352;2023-04-25T02:41:14;86657.40;;;21.80
76394;BMP180;65216;51.090;-115.352;2023-04-25T02:43:41;86659.60;;;21.80
76394;BMP180;65216;51.090;-115.352;2023-04-25T02:46:10;86666.20;;;21.80
76394;BMP180;65216;51.090;-115.352;2023-04-25T02:48:38;86671.80;;;21.80
76394;BMP180;65216;51.090;-115.352;2023-04-25T02:51:08;86675.20;;;21.80
76394;BMP180;65216;51.090;-115.352;2023-04-25T02:53:35;86667.60;;;21.80
76394;BMP180;65216;51.090;-115.352;2023-04-25T02:56:02;86678.80;;;21.80
76394;BMP180;65216;51.090;-115.352;2023-04-25T02:58:30;86678.40;;;21.80
76394;BMP180;65216;51.090;-115.352;2023-04-25T03:01:03;86679.80;;;21.80
76394;BMP180;65216;51.090;-115.352;2023-04-25T03:03:30;86685.20;;;21.76
76394;BMP180;65216;51.090;-115.352;2023-04-25T03:06:00;86693.60;;;21.70
76394;BMP180;65216;51.090;-115.352;2023-04-25T03:08:27;86694.00;;;21.70
76394;BMP180;65216;51.090;-115.352;2023-04-25T03:11:04;86696.80;;;21.70
76394;BMP180;65216;51.090;-115.352;2023-04-25T03:13:31;86701.20;;;21.70
76394;BMP180;65216;51.090;-115.352;2023-04-25T03:15:59;86697.80;;;21.70
76394;BMP180;65216;51.090;-115.352;2023-04-25T03:18:26;86696.80;;;21.70
76394;BMP180;65216;51.090;-115.352;2023-04-25T03:20:53;86707.80;;;21.70
76394;BMP180;65216;51.090;-115.352;2023-04-25T03:23:24;86710.40;;;21.70
76394;BMP180;65216;51.090;-115.352;2023-04-25T03:25:52;86708.60;;;21.70
76394;BMP180;65216;51.090;-115.352;2023-04-25T03:28:22;86710.60;;;21.70
76394;BMP180;65216;51.090;-115.352;2023-04-25T03:30:49;86725.20;;;21.70
76394;BMP180;65216;51.090;-115.352;2023-04-25T03:33:17;86720.60;;;21.70
76394;BMP180;65216;51.090;-115.352;2023-04-25T03:35:44;86719.40;;;21.70
76394;BMP180;65216;51.090;-115.352;2023-04-25T03:38:12;86729.20;;;21.70
76394;BMP180;65216;51.090;-115.352;2023-04-25T03:40:39;86724.00;;;21.70
76394;BMP180;65216;51.090;-115.352;2023-04-25T03:43:06;86731.60;;;21.70
76394;BMP180;65216;51.090;-115.352;2023-04-25T03:45:37;86726.40;;;21.70
76394;BMP180;65216;51.090;-115.352;2023-04-25T03:48:05;86725.60;;;21.70
76394;BMP180;65216;51.090;-115.352;2023-04-25T03:50:35;86729.80;;;21.68
76394;BMP180;65216;51.090;-115.352;2023-04-25T03:53:02;86728.40;;;21.62
76394;BMP180;65216;51.090;-115.352;2023-04-25T03:55:29;86730.80;;;21.60
76394;BMP180;65216;51.090;-115.352;2023-04-25T03:57:58;86738.20;;;21.60
76394;BMP180;65216;51.090;-115.352;2023-04-25T04:00:26;86732.60;;;21.60
76394;BMP180;65216;51.090;-115.352;2023-04-25T04:02:53;86735.20;;;21.60
76394;BMP180;65216;51.090;-115.352;2023-04-25T04:05:23;86741.60;;;21.60
76394;BMP180;65216;51.090;-115.352;2023-04-25T04:07:50;86734.00;;;21.60
76394;BMP180;65216;51.090;-115.352;2023-04-25T04:10:17;86743.00;;;21.58
76394;BMP180;65216;51.090;-115.352;2023-04-25T04:12:45;86744.80;;;21.50
76394;BMP180;65216;51.090;-115.352;2023-04-25T04:15:12;86754.60;;;21.50
76394;BMP180;65216;51.090;-115.352;2023-04-25T04:17:42;86759.00;;;21.50
76394;BMP180;65216;51.090;-115.352;2023-04-25T04:20:10;86760.80;;;21.50
76394;BMP180;65216;51.090;-115.352;2023-04-25T04:22:40;86763.00;;;21.50
76394;BMP180;65216;51.090;-115.352;2023-04-25T04:25:08;86765.00;;;21.50
76394;BMP180;65216;51.090;-115.352;2023-04-25T04:27:36;86767.40;;;21.48
76394;BMP180;65216;51.090;-115.352;2023-04-25T04:30:03;86765.60;;;21.42
76394;BMP180;65216;51.090;-115.352;2023-04-25T04:32:31;86763.00;;;21.40
76394;BMP180;65216;51.090;-115.352;2023-04-25T04:35:01;86768.20;;;21.40
76394;BMP180;65216;51.090;-115.352;2023-04-25T04:37:29;86771.20;;;21.40
76394;BMP180;65216;51.090;-115.352;2023-04-25T04:39:58;86771.00;;;21.40
76394;BMP180;65216;51.090;-115.352;2023-04-25T04:42:25;86771.20;;;21.40
76394;BMP180;65216;51.090;-115.352;2023-04-25T04:44:52;86778.00;;;21.40
76394;BMP180;65216;51.090;-115.352;2023-04-25T04:47:21;86773.80;;;21.40
76394;BMP180;65216;51.090;-115.352;2023-04-25T04:49:50;86771.00;;;21.40
76394;BMP180;65216;51.090;-115.352;2023-04-25T04:52:20;86775.80;;;21.40
76394;BMP180;65216;51.090;-115.352;2023-04-25T04:54:50;86777.80;;;21.40
76394;BMP180;65216;51.090;-115.352;2023-04-25T04:57:17;86781.20;;;21.32
76394;BMP180;65216;51.090;-115.352;2023-04-25T04:59:44;86778.20;;;21.34
76394;BMP180;65216;51.090;-115.352;2023-04-25T05:02:12;86777.00;;;21.30
76394;BMP180;65216;51.090;-115.352;2023-04-25T05:04:39;86778.60;;;21.30
76394;BMP180;65216;51.090;-115.352;2023-04-25T05:07:06;86777.40;;;21.30
76394;BMP180;65216;51.090;-115.352;2023-04-25T05:09:34;86773.00;;;21.30
76394;BMP180;65216;51.090;-115.352;2023-04-25T05:12:01;86782.40;;;21.30
76394;BMP180;65216;51.090;-115.352;2023-04-25T05:14:28;86783.60;;;21.30
76394;BMP180;65216;51.090;-115.352;2023-04-25T05:16:56;86781.40;;;21.30
76394;BMP180;65216;51.090;-115.352;2023-04-25T05:19:24;86788.80;;;21.30
76394;BMP180;65216;51.090;-115.352;2023-04-25T05:21:52;86787.00;;;21.30
76394;BMP180;65216;51.090;-115.352;2023-04-25T05:24:19;86785.80;;;21.30
76394;BMP180;65216;51.090;-115.352;2023-04-25T05:26:46;86782.60;;;21.30
76394;BMP180;65216;51.090;-115.352;2023-04-25T05:29:13;86771.20;;;21.30
76394;BMP180;65216;51.090;-115.352;2023-04-25T05:31:40;86781.00;;;21.30
76394;BMP180;65216;51.090;-115.352;2023-04-25T05:34:07;86786.40;;;21.30
76394;BMP180;65216;51.090;-115.352;2023-04-25T05:36:35;86776.60;;;21.30
76394;BMP180;65216;51.090;-115.352;2023-04-25T05:39:03;86779.60;;;21.28
76394;BMP180;65216;51.090;-115.352;2023-04-25T05:41:30;86782.40;;;21.26
76394;BMP180;65216;51.090;-115.352;2023-04-25T05:43:58;86779.60;;;21.22
76394;BMP180;65216;51.090;-115.352;2023-04-25T05:46:25;86781.00;;;21.26
76394;BMP180;65216;51.090;-115.352;2023-04-25T05:48:52;86779.40;;;21.22
76394;BMP180;65216;51.090;-115.352;2023-04-25T05:51:22;86780.40;;;21.22
76394;BMP180;65216;51.090;-115.352;2023-04-25T05:53:50;86783.60;;;21.20
76394;BMP180;65216;51.090;-115.352;2023-04-25T05:56:17;86789.40;;;21.20
76394;BMP180;65216;51.090;-115.352;2023-04-25T05:58:44;86796.80;;;21.20
76394;BMP180;65216;51.090;-115.352;2023-04-25T06:01:12;86793.80;;;21.20
76394;BMP180;65216;51.090;-115.352;2023-04-25T06:03:40;86787.40;;;21.20
76394;BMP180;65216;51.090;-115.352;2023-04-25T06:06:10;86790.00;;;21.20
76394;BMP180;65216;51.090;-115.352;2023-04-25T06:08:38;86788.80;;;21.20
76394;BMP180;65216;51.090;-115.352;2023-04-25T06:11:05;86791.40;;;21.20
76394;BMP180;65216;51.090;-115.352;2023-04-25T06:13:35;86791.40;;;21.20
76394;BMP180;65216;51.090;-115.352;2023-04-25T06:16:02;86795.40;;;21.20
76394;BMP180;65216;51.090;-115.352;2023-04-25T06:18:33;86800.60;;;21.20
76394;BMP180;65216;51.090;-115.352;2023-04-25T06:21:03;86804.40;;;21.20
76394;BMP180;65216;51.090;-115.352;2023-04-25T06:23:30;86807.00;;;21.20
76394;BMP180;65216;51.090;-115.352;2023-04-25T06:25:57;86804.20;;;21.20
76394;BMP180;65216;51.090;-115.352;2023-04-25T06:28:24;86800.60;;;21.20
76394;BMP180;65216;51.090;-115.352;2023-04-25T06:30:52;86806.20;;;21.20
76394;BMP180;65216;51.090;-115.352;2023-04-25T06:33:19;86804.80;;;21.20
76394;BMP180;65216;51.090;-115.352;2023-04-25T06:35:47;86809.20;;;21.20
76394;BMP180;65216;51.090;-115.352;2023-04-25T06:38:15;86817.40;;;21.20
76394;BMP180;65216;51.090;-115.352;2023-04-25T06:40:43;86815.20;;;21.20
76394;BMP180;65216;51.090;-115.352;2023-04-25T06:43:10;86812.40;;;21.18
76394;BMP180;65216;51.090;-115.352;2023-04-25T06:45:37;86819.00;;;21.12
76394;BMP180;65216;51.090;-115.352;2023-04-25T06:48:04;86828.60;;;21.14
76394;BMP180;65216;51.090;-115.352;2023-04-25T06:50:32;86830.20;;;21.14
76394;BMP180;65216;51.090;-115.352;2023-04-25T06:53:00;86818.00;;;21.10
76394;BMP180;65216;51.090;-115.352;2023-04-25T06:55:28;86829.60;;;21.10
76394;BMP180;65216;51.090;-115.352;2023-04-25T06:57:55;86827.60;;;21.10
76394;BMP180;65216;51.090;-115.352;2023-04-25T07:00:22;86827.80;;;21.10
76394;BMP180;65216;51.090;-115.352;2023-04-25T07:02:49;86831.00;;;21.10
76394;BMP180;65216;51.090;-115.352;2023-04-25T07:05:17;86843.60;;;21.10
76394;BMP180;65216;51.090;-115.352;2023-04-25T07:07:44;86840.60;;;21.10
76394;BMP180;65216;51.090;-115.352;2023-04-25T07:10:11;86843.00;;;21.10
76394;BMP180;65216;51.090;-115.352;2023-04-25T07:12:39;86839.40;;;21.10
76394;BMP180;65216;51.090;-115.352;2023-04-25T07:15:07;86834.20;;;21.10
76394;BMP180;65216;51.090;-115.352;2023-04-25T07:17:36;86834.20;;;21.10
76394;BMP180;65216;51.090;-115.352;2023-04-25T07:20:05;86838.20;;;21.10
76394;BMP180;65216;51.090;-115.352;2023-04-25T07:22:32;86837.40;;;21.10
76394;BMP180;65216;51.090;-115.352;2023-04-25T07:25:00;86847.60;;;21.10
76394;BMP180;65216;51.090;-115.352;2023-04-25T07:27:27;86835.40;;;21.10
76394;BMP180;65216;51.090;-115.352;2023-04-25T07:29:55;86835.80;;;21.10
76394;BMP180;65216;51.090;-115.352;2023-04-25T07:32:22;86832.40;;;21.12
76394;BMP180;65216;51.090;-115.352;2023-04-25T07:34:52;86842.40;;;21.14
76394;BMP180;65216;51.090;-115.352;2023-04-25T07:37:20;86841.60;;;21.20
76394;BMP180;65216;51.090;-115.352;2023-04-25T07:39:47;86843.60;;;21.18
76394;BMP180;65216;51.090;-115.352;2023-04-25T07:42:14;86845.40;;;21.20
76394;BMP180;65216;51.090;-115.352;2023-04-25T07:44:42;86844.20;;;21.20
76394;BMP180;65216;51.090;-115.352;2023-04-25T07:47:10;86842.80;;;21.20
76394;BMP180;65216;51.090;-115.352;2023-04-25T07:49:40;86843.40;;;21.20
76394;BMP180;65216;51.090;-115.352;2023-04-25T07:52:07;86847.60;;;21.20
76394;BMP180;65216;51.090;-115.352;2023-04-25T07:54:35;86845.60;;;21.20
76394;BMP180;65216;51.090;-115.352;2023-04-25T07:57:02;86846.00;;;21.20
76394;BMP180;65216;51.090;-115.352;2023-04-25T07:59:30;86844.00;;;21.20
76394;BMP180;65216;51.090;-115.352;2023-04-25T08:01:57;86847.40;;;21.20
76394;BMP180;65216;51.090;-115.352;2023-04-25T08:04:25;86848.20;;;21.20
76394;BMP180;65216;51.090;-115.352;2023-04-25T08:06:52;86849.80;;;21.20
76394;BMP180;65216;51.090;-115.352;2023-04-25T08:09:25;86851.60;;;21.16
76394;BMP180;65216;51.090;-115.352;2023-04-25T08:11:52;86847.00;;;21.20
76394;BMP180;65216;51.090;-115.352;2023-04-25T08:14:22;86837.60;;;21.20
76394;BMP180;65216;51.090;-115.352;2023-04-25T08:16:51;86831.20;;;21.20
76394;BMP180;65216;51.090;-115.352;2023-04-25T08:19:19;86857.00;;;21.20
76394;BMP180;65216;51.090;-115.352;2023-04-25T08:21:46;86850.80;;;21.20
76394;BMP180;65216;51.090;-115.352;2023-04-25T08:24:13;86847.40;;;21.20
76394;BMP180;65216;51.090;-115.352;2023-04-25T08:26:40;86844.40;;;21.20
76394;BMP180;65216;51.090;-115.352;2023-04-25T08:29:08;86839.20;;;21.20
76394;BMP180;65216;51.090;-115.352;2023-04-25T08:31:35;86850.40;;;21.20
76394;BMP180;65216;51.090;-115.352;2023-04-25T08:34:02;86852.40;;;21.20
76394;BMP180;65216;51.090;-115.352;2023-04-25T08:36:29;86854.20;;;21.20
76394;BMP180;65216;51.090;-115.352;2023-04-25T08:38:58;86856.40;;;21.20
76394;BMP180;65216;51.090;-115.352;2023-04-25T08:41:27;86848.20;;;21.20
76394;BMP180;65216;51.090;-115.352;2023-04-25T08:43:56;86846.80;;;21.20
76394;BMP180;65216;51.090;-115.352;2023-04-25T08:46:27;86840.60;;;21.20
76394;BMP180;65216;51.090;-115.352;2023-04-25T08:49:01;86843.80;;;21.20
76394;BMP180;65216;51.090;-115.352;2023-04-25T08:51:32;86842.20;;;21.20
76394;BMP180;65216;51.090;-115.352;2023-04-25T08:54:14;86840.20;;;21.16
76394;BMP180;65216;51.090;-115.352;2023-04-25T08:56:47;86843.00;;;21.14
76394;BMP180;65216;51.090;-115.352;2023-04-25T08:59:14;86844.00;;;21.16
76394;BMP180;65216;51.090;-115.352;2023-04-25T09:01:42;86848.60;;;21.12
76394;BMP180;65216;51.090;-115.352;2023-04-25T09:04:08;86859.00;;;21.16
76394;BMP180;65216;51.090;-115.352;2023-04-25T09:06:36;86847.80;;;21.10
76394;BMP180;65216;51.090;-115.352;2023-04-25T09:09:08;86851.20;;;21.14
76394;BMP180;65216;51.090;-115.352;2023-04-25T09:11:37;86839.20;;;21.20
76394;BMP180;65216;51.090;-115.352;2023-04-25T09:14:22;86821.40;;;21.20
76394;BMP180;65216;51.090;-115.352;2023-04-25T09:16:59;86838.80;;;21.20
76394;BMP180;65216;51.090;-115.352;2023-04-25T09:21:57;86832.20;;;21.10
76394;BMP180;65216;51.090;-115.352;2023-04-25T09:24:40;86827.40;;;21.12
76394;BMP180;65216;51.090;-115.352;2023-04-25T09:27:19;86820.80;;;21.10
76394;BMP180;65216;51.090;-115.352;2023-04-25T09:29:58;86815.40;;;21.10
76394;BMP180;65216;51.090;-115.352;2023-04-25T09:32:27;86822.40;;;21.10
76394;BMP180;65216;51.090;-115.352;2023-04-25T09:34:57;86825.00;;;21.10
76394;BMP180;65216;51.090;-115.352;2023-04-25T09:37:30;86830.60;;;21.10
76394;BMP180;65216;51.090;-115.352;2023-04-25T09:40:03;86824.80;;;21.10
76394;BMP180;65216;51.090;-115.352;2023-04-25T09:42:32;86830.00;;;21.10
76394;BMP180;65216;51.090;-115.352;2023-04-25T09:45:04;86816.60;;;21.10
76394;BMP180;65216;51.090;-115.352;2023-04-25T09:47:31;86829.20;;;21.10
76394;BMP180;65216;51.090;-115.352;2023-04-25T09:49:58;86831.40;;;21.10
76394;BMP180;65216;51.090;-115.352;2023-04-25T09:52:28;86828.60;;;21.10
76394;BMP180;65216;51.090;-115.352;2023-04-25T09:54:59;86825.80;;;21.10
76394;BMP180;65216;51.090;-115.352;2023-04-25T09:57:26;86827.00;;;21.10
76394;BMP180;65216;51.090;-115.352;2023-04-25T09:59:55;86830.40;;;21.10
76394;BMP180;65216;51.090;-115.352;2023-04-25T10:02:25;86824.60;;;21.10
76394;BMP180;65216;51.090;-115.352;2023-04-25T10:04:54;86831.00;;;21.10
76394;BMP180;65216;51.090;-115.352;2023-04-25T10:07:31;86835.80;;;21.08
76394;BMP180;65216;51.090;-115.352;2023-04-25T10:10:04;86824.40;;;21.02
76394;BMP180;65216;51.090;-115.352;2023-04-25T10:12:34;86825.80;;;21.00
76394;BMP180;65216;51.090;-115.352;2023-04-25T10:15:04;86827.20;;;21.00
76394;BMP180;65216;51.090;-115.352;2023-04-25T10:17:33;86828.40;;;21.00
76394;BMP180;65216;51.090;-115.352;2023-04-25T10:20:02;86836.60;;;21.00
76394;BMP180;65216;51.090;-115.352;2023-04-25T10:22:43;86836.60;;;21.00
76394;BMP180;65216;51.090;-115.352;2023-04-25T10:25:15;86837.60;;;20.96
76394;BMP180;65216;51.090;-115.352;2023-04-25T10:27:42;86835.80;;;20.90
76394;BMP180;65216;51.090;-115.352;2023-04-25T10:30:14;86837.40;;;20.90
76394;BMP180;65216;51.090;-115.352;2023-04-25T10:32:45;86842.00;;;20.90
76394;BMP180;65216;51.090;-115.352;2023-04-25T10:35:24;86833.80;;;20.90
76394;BMP180;65216;51.090;-115.352;2023-04-25T10:40:33;86824.80;;;20.90
76394;BMP180;65216;51.090;-115.352;2023-04-25T10:46:02;86832.60;;;20.82
76394;BMP180;65216;51.090;-115.352;2023-04-25T10:48:35;86832.60;;;20.80
76394;BMP180;65216;51.090;-115.352;2023-04-25T10:51:23;86837.60;;;20.80
76394;BMP180;65216;51.090;-115.352;2023-04-25T10:53:57;86841.80;;;20.80
76394;BMP180;65216;51.090;-115.352;2023-04-25T10:56:37;86830.40;;;20.80
76394;BMP180;65216;51.090;-115.352;2023-04-25T10:59:08;86825.40;;;20.80
76394;BMP180;65216;51.090;-115.352;2023-04-25T11:01:43;86828.00;;;20.80
76394;BMP180;65216;51.090;-115.352;2023-04-25T11:04:29;86832.20;;;20.80
76394;BMP180;65216;51.090;-115.352;2023-04-25T11:07:13;86825.20;;;20.80
76394;BMP180;65216;51.090;-115.352;2023-04-25T11:09:45;86835.20;;;20.80
76394;BMP180;65216;51.090;-115.352;2023-04-25T11:12:12;86841.20;;;20.80
76394;BMP180;65216;51.090;-115.352;2023-04-25T11:14:40;86838.80;;;20.80
76394;BMP180;65216;51.090;-115.352;2023-04-25T11:17:10;86839.00;;;20.80
76394;BMP180;65216;51.090;-115.352;2023-04-25T11:19:37;86839.00;;;20.70
76394;BMP180;65216;51.090;-115.352;2023-04-25T11:22:07;86833.00;;;20.70
76394;BMP180;65216;51.090;-115.352;2023-04-25T11:24:37;86823.60;;;20.70
76394;BMP180;65216;51.090;-115.352;2023-04-25T11:27:05;86825.60;;;20.70
76394;BMP180;65216;51.090;-115.352;2023-04-25T11:29:34;86837.00;;;20.70
76394;BMP180;65216;51.090;-115.352;2023-04-25T11:32:02;86834.60;;;20.70
76394;BMP180;65216;51.090;-115.352;2023-04-25T11:34:31;86833.20;;;20.70
76394;BMP180;65216;51.090;-115.352;2023-04-25T11:37:00;86825.00;;;20.70
76394;BMP180;65216;51.090;-115.352;2023-04-25T11:39:29;86820.80;;;20.70
76394;BMP180;65216;51.090;-115.352;2023-04-25T11:41:57;86824.00;;;20.70
76394;BMP180;65216;51.090;-115.352;2023-04-25T11:44:25;86828.00;;;20.70
76394;BMP180;65216;51.090;-115.352;2023-04-25T11:46:53;86831.40;;;20.70
76394;BMP180;65216;51.090;-115.352;2023-04-25T11:49:20;86824.20;;;20.70
76394;BMP180;65216;51.090;-115.352;2023-04-25T11:51:49;86818.40;;;20.70
76394;BMP180;65216;51.090;-115.352;2023-04-25T11:54:16;86811.60;;;20.70
76394;BMP180;65216;51.090;-115.352;2023-04-25T11:56:45;86816.00;;;20.70
76394;BMP180;65216;51.090;-115.352;2023-04-25T11:59:13;86812.80;;;20.70
76394;BMP180;65216;51.090;-115.352;2023-04-25T12:01:48;86813.60;;;20.70
76394;BMP180;65216;51.090;-115.352;2023-04-25T12:04:24;86827.40;;;20.70
76394;BMP180;65216;51.090;-115.352;2023-04-25T12:06:54;86821.60;;;20.70
76394;BMP180;65216;51.090;-115.352;2023-04-25T12:09:39;86824.40;;;20.70
76394;BMP180;65216;51.090;-115.352;2023-04-25T12:12:10;86820.60;;;20.70
76394;BMP180;65216;51.090;-115.352;2023-04-25T12:14:38;86818.00;;;20.70
76394;BMP180;65216;51.090;-115.352;2023-04-25T12:17:06;86821.20;;;20.70
76394;BMP180;65216;51.090;-115.352;2023-04-25T12:19:36;86836.40;;;20.70
76394;BMP180;65216;51.090;-115.352;2023-04-25T12:22:23;86835.80;;;20.70
76394;BMP180;65216;51.090;-115.352;2023-04-25T12:24:51;86834.60;;;20.70
76394;BMP180;65216;51.090;-115.352;2023-04-25T12:27:20;86834.00;;;20.70
76394;BMP180;65216;51.090;-115.352;2023-04-25T12:29:55;86829.40;;;20.70
76394;BMP180;65216;51.090;-115.352;2023-04-25T12:32:25;86826.00;;;20.70
76394;BMP180;65216;51.090;-115.352;2023-04-25T12:34:53;86842.80;;;20.70
76394;BMP180;65216;51.090;-115.352;2023-04-25T12:37:23;86833.60;;;20.70
76394;BMP180;65216;51.090;-115.352;2023-04-25T12:39:50;86829.60;;;20.70
76394;BMP180;65216;51.090;-115.352;2023-04-25T12:42:18;86839.80;;;20.70
76394;BMP180;65216;51.090;-115.352;2023-04-25T12:44:45;86842.60;;;20.70
76394;BMP180;65216;51.090;-115.352;2023-04-25T12:47:15;86848.80;;;20.70
76394;BMP180;65216;51.090;-115.352;2023-04-25T12:49:42;86848.40;;;20.70
76394;BMP180;65216;51.090;-115.352;2023-04-25T12:52:09;86843.20;;;20.70
76394;BMP180;65216;51.090;-115.352;2023-04-25T12:54:37;86842.00;;;20.70
76394;BMP180;65216;51.090;-115.352;2023-04-25T12:57:05;86845.60;;;20.70
76394;BMP180;65216;51.090;-115.352;2023-04-25T12:59:32;86845.60;;;20.70
76394;BMP180;65216;51.090;-115.352;2023-04-25T13:02:03;86849.60;;;20.70
76394;BMP180;65216;51.090;-115.352;2023-04-25T13:04:31;86847.60;;;20.70
76394;BMP180;65216;51.090;-115.352;2023-04-25T13:06:58;86841.80;;;20.70
76394;BMP180;65216;51.090;-115.352;2023-04-25T13:09:26;86836.40;;;20.70
76394;BMP180;65216;51.090;-115.352;2023-04-25T13:11:53;86832.00;;;20.70
76394;BMP180;65216;51.090;-115.352;2023-04-25T13:14:21;86841.60;;;20.72
76394;BMP180;65216;51.090;-115.352;2023-04-25T13:16:48;86839.20;;;20.80
76394;BMP180;65216;51.090;-115.352;2023-04-25T13:19:16;86835.40;;;20.80
76394;BMP180;65216;51.090;-115.352;2023-04-25T13:21:49;86839.80;;;20.80
76394;BMP180;65216;51.090;-115.352;2023-04-25T13:24:16;86839.20;;;20.80
76394;BMP180;65216;51.090;-115.352;2023-04-25T13:26:44;86830.60;;;20.80
76394;BMP180;65216;51.090;-115.352;2023-04-25T13:29:14;86841.60;;;20.80
76394;BMP180;65216;51.090;-115.352;2023-04-25T13:31:41;86843.20;;;20.80
76394;BMP180;65216;51.090;-115.352;2023-04-25T13:34:09;86841.80;;;20.80
76394;BMP180;65216;51.090;-115.352;2023-04-25T13:36:37;86849.20;;;20.80
76394;BMP180;65216;51.090;-115.352;2023-04-25T13:39:05;86851.60;;;20.90
76394;BMP180;65216;51.090;-115.352;2023-04-25T13:41:33;86848.20;;;20.90
76394;BMP180;65216;51.090;-115.352;2023-04-25T13:44:00;86848.40;;;20.90
76394;BMP180;65216;51.090;-115.352;2023-04-25T13:46:27;86839.60;;;20.90
76394;BMP180;65216;51.090;-115.352;2023-04-25T13:48:55;86839.00;;;20.90
76394;BMP180;65216;51.090;-115.352;2023-04-25T13:51:22;86829.00;;;20.90